createdAt,value
2018-01-20T00:00:27.148Z,7.87
2018-01-20T00:02:54.687Z,7.70
2018-01-20T00:05:22.960Z,7.67
2018-01-20T00:07:50.442Z,7.60
2018-01-20T00:13:19.743Z,8.97
2018-01-20T00:15:48.026Z,9.93
2018-01-20T00:18:16.301Z,9.90
2018-01-20T00:20:43.793Z,8.13
2018-01-20T00:23:11.366Z,7.47
2018-01-20T00:25:38.851Z,9.47
2018-01-20T00:28:06.339Z,10.20
2018-01-20T00:30:33.874Z,8.57
2018-01-20T00:33:02.119Z,11.23
2018-01-20T00:35:29.621Z,11.03
2018-01-20T00:37:57.905Z,9.10
2018-01-20T00:40:25.411Z,9.30
2018-01-20T00:42:53.705Z,8.90
2018-01-20T00:45:21.986Z,10.23
2018-01-20T00:47:49.492Z,8.97
2018-01-20T00:50:17.750Z,12.13
2018-01-20T00:52:46.057Z,8.90
2018-01-20T00:55:13.554Z,7.37
2018-01-20T00:57:41.054Z,7.17
2018-01-20T01:00:09.340Z,6.70
2018-01-20T01:02:36.822Z,6.57
2018-01-20T01:05:04.343Z,6.13
2018-01-20T01:07:31.870Z,6.77
2018-01-20T01:09:59.364Z,7.53
2018-01-20T01:12:26.868Z,7.13
2018-01-20T01:14:55.154Z,7.70
2018-01-20T01:17:22.652Z,6.90
2018-01-20T01:19:50.915Z,7.03
2018-01-20T01:22:18.439Z,6.50
2018-01-20T01:24:46.679Z,6.70
2018-01-20T01:27:14.175Z,6.87
2018-01-20T01:29:41.683Z,7.53
2018-01-20T01:32:09.172Z,8.17
2018-01-20T01:34:37.488Z,5.77
2018-01-20T01:37:05.759Z,6.70
2018-01-20T01:39:33.409Z,6.13
2018-01-20T01:42:00.898Z,5.13
2018-01-20T01:44:28.430Z,6.30
2018-01-20T01:46:56.695Z,5.83
2018-01-20T01:49:24.193Z,6.53
2018-01-20T01:51:51.730Z,6.40
2018-01-20T01:54:19.238Z,5.57
2018-01-20T01:56:46.739Z,5.60
2018-01-20T01:59:14.262Z,6.07
2018-01-20T02:01:41.746Z,6.33
2018-01-20T02:04:09.259Z,6.10
2018-01-20T02:06:37.380Z,5.30
2018-01-20T02:09:04.887Z,5.53
2018-01-20T02:11:33.163Z,4.97
2018-01-20T02:14:00.671Z,5.10
2018-01-20T02:16:28.168Z,4.33
2018-01-20T02:18:55.662Z,4.53
2018-01-20T02:21:26.838Z,5.07
2018-01-20T02:23:54.878Z,4.53
2018-01-20T02:26:23.163Z,4.67
2018-01-20T02:28:50.702Z,4.13
2018-01-20T02:31:18.175Z,4.13
2018-01-20T02:33:45.662Z,4.87
2018-01-20T02:36:13.176Z,4.73
2018-01-20T02:38:40.670Z,4.97
2018-01-20T02:41:08.168Z,5.03
2018-01-20T02:43:35.690Z,4.70
2018-01-20T02:46:03.218Z,4.83
2018-01-20T02:48:30.716Z,5.40
2018-01-20T02:50:58.228Z,5.17
2018-01-20T02:53:25.737Z,10.77
2018-01-20T02:55:53.232Z,4.70
2018-01-20T02:58:20.743Z,4.87
2018-01-20T03:00:48.240Z,3.80
2018-01-20T03:03:16.487Z,4.47
2018-01-20T03:05:44.009Z,4.20
2018-01-20T03:08:11.502Z,3.40
2018-01-20T03:10:38.991Z,4.33
2018-01-20T03:13:07.275Z,3.83
2018-01-20T03:15:34.775Z,4.33
2018-01-20T03:18:03.039Z,3.83
2018-01-20T03:20:30.555Z,4.07
2018-01-20T03:23:00.118Z,4.47
2018-01-20T03:25:27.610Z,5.00
2018-01-20T03:27:55.137Z,5.00
2018-01-20T03:30:24.266Z,5.27
2018-01-20T03:32:52.528Z,5.60
2018-01-20T03:35:20.049Z,5.80
2018-01-20T03:37:48.299Z,4.77
2018-01-20T03:40:16.754Z,6.20
2018-01-20T03:42:44.282Z,5.10
2018-01-20T03:45:11.788Z,5.13
2018-01-20T03:47:39.310Z,5.17
2018-01-20T03:50:07.645Z,4.63
2018-01-20T03:52:35.157Z,4.83
2018-01-20T03:55:02.666Z,4.60
2018-01-20T03:57:30.962Z,4.60
2018-01-20T03:59:58.438Z,4.00
2018-01-20T04:02:25.919Z,4.07
2018-01-20T04:04:53.436Z,3.70
2018-01-20T04:07:20.949Z,3.60
2018-01-20T04:09:48.447Z,3.47
2018-01-20T04:12:15.947Z,3.90
2018-01-20T04:14:43.423Z,3.57
2018-01-20T04:17:10.914Z,3.60
2018-01-20T04:19:39.131Z,4.33
2018-01-20T04:22:07.398Z,4.87
2018-01-20T04:24:34.907Z,3.57
2018-01-20T04:27:03.202Z,3.87
2018-01-20T04:29:31.497Z,3.97
2018-01-20T04:31:58.986Z,4.27
2018-01-20T04:34:27.255Z,4.47
2018-01-20T04:36:54.746Z,4.00
2018-01-20T04:39:23.009Z,3.67
2018-01-20T04:41:50.519Z,4.03
2018-01-20T04:44:18.008Z,3.97
2018-01-20T04:46:45.502Z,4.37
2018-01-20T04:49:13.006Z,5.17
2018-01-20T04:51:41.263Z,5.67
2018-01-20T04:54:08.779Z,5.97
2018-01-20T04:56:37.855Z,5.80
2018-01-20T04:59:05.362Z,6.60
2018-01-20T05:01:32.851Z,7.43
2018-01-20T05:04:01.148Z,8.47
2018-01-20T05:06:28.649Z,8.37
2018-01-20T05:08:56.899Z,7.27
2018-01-20T05:11:24.415Z,5.63
2018-01-20T05:13:51.915Z,5.70
2018-01-20T05:16:20.184Z,5.30
2018-01-20T05:18:47.691Z,4.87
2018-01-20T05:21:15.946Z,4.63
2018-01-20T05:23:43.439Z,4.83
2018-01-20T05:26:10.946Z,5.27
2018-01-20T05:28:38.446Z,5.50
2018-01-20T05:31:06.703Z,5.03
2018-01-20T05:33:34.235Z,5.33
2018-01-20T05:36:01.738Z,4.00
2018-01-20T05:38:29.241Z,3.40
2018-01-20T05:40:56.769Z,4.40
2018-01-20T05:43:25.023Z,5.00
2018-01-20T05:45:52.571Z,4.97
2018-01-20T05:48:20.116Z,5.10
2018-01-20T05:50:47.606Z,6.53
2018-01-20T05:53:15.095Z,6.27
2018-01-20T05:55:43.355Z,5.47
2018-01-20T05:58:10.854Z,8.33
2018-01-20T06:00:38.355Z,8.23
2018-01-20T06:03:05.938Z,6.30
2018-01-20T06:05:34.195Z,4.57
2018-01-20T06:08:01.716Z,3.90
2018-01-20T06:10:29.230Z,3.97
2018-01-20T06:12:56.721Z,3.30
2018-01-20T06:15:24.229Z,3.23
2018-01-20T06:17:51.759Z,3.73
2018-01-20T06:20:20.010Z,3.80
2018-01-20T06:22:47.504Z,3.57
2018-01-20T06:25:15.335Z,4.10
2018-01-20T06:27:43.600Z,4.33
2018-01-20T06:30:11.124Z,3.40
2018-01-20T06:32:39.423Z,3.30
2018-01-20T06:35:07.675Z,3.30
2018-01-20T06:37:35.162Z,3.57
2018-01-20T06:40:02.688Z,3.60
2018-01-20T06:42:30.934Z,3.60
2018-01-20T06:44:58.422Z,3.80
2018-01-20T06:47:25.947Z,3.70
2018-01-20T06:49:54.199Z,3.87
2018-01-20T06:52:21.706Z,3.70
2018-01-20T06:54:50.002Z,4.00
2018-01-20T06:57:17.498Z,4.93
2018-01-20T06:59:45.054Z,4.20
2018-01-20T07:02:12.562Z,4.07
2018-01-20T07:04:40.047Z,6.27
2018-01-20T07:07:07.534Z,3.97
2018-01-20T07:09:35.059Z,3.87
2018-01-20T07:12:02.550Z,4.00
2018-01-20T07:14:30.047Z,6.80
2018-01-20T07:16:57.567Z,3.80
2018-01-20T07:19:25.818Z,4.00
2018-01-20T07:21:53.295Z,3.13
2018-01-20T07:24:21.574Z,3.07
2018-01-20T07:26:49.263Z,3.43
2018-01-20T07:29:16.752Z,3.40
2018-01-20T07:31:44.276Z,4.93
2018-01-20T07:34:11.774Z,2.60
2018-01-20T07:36:40.047Z,3.07
2018-01-20T07:39:07.566Z,2.97
2018-01-20T07:41:35.840Z,3.03
2018-01-20T07:44:04.283Z,2.83
2018-01-20T07:46:31.827Z,3.40
2018-01-20T07:48:59.331Z,3.90
2018-01-20T07:51:27.607Z,3.20
2018-01-20T07:53:55.148Z,3.03
2018-01-20T07:56:22.643Z,2.93
2018-01-20T07:58:50.139Z,3.33
2018-01-20T08:01:17.650Z,5.40
2018-01-20T08:03:45.143Z,3.43
2018-01-20T08:06:13.402Z,3.77
2018-01-20T08:08:40.899Z,4.63
2018-01-20T08:11:08.374Z,3.53
2018-01-20T08:13:35.956Z,3.70
2018-01-20T08:16:05.228Z,5.60
2018-01-20T08:18:32.707Z,3.80
2018-01-20T08:21:00.191Z,7.13
2018-01-20T08:23:27.687Z,9.10
2018-01-20T08:25:55.167Z,3.80
2018-01-20T08:28:22.654Z,5.27
2018-01-20T08:30:50.154Z,4.43
2018-01-20T08:33:17.637Z,4.90
2018-01-20T08:35:45.136Z,4.60
2018-01-20T08:38:12.671Z,4.03
2018-01-20T08:40:41.023Z,3.33
2018-01-20T08:43:08.531Z,3.40
2018-01-20T08:45:36.836Z,3.63
2018-01-20T08:48:05.115Z,3.10
2018-01-20T08:50:32.631Z,3.83
2018-01-20T08:53:00.162Z,5.17
2018-01-20T08:55:27.647Z,3.83
2018-01-20T08:57:55.138Z,3.27
2018-01-20T09:00:22.642Z,3.30
2018-01-20T09:02:50.890Z,3.07
2018-01-20T09:05:18.371Z,2.50
2018-01-20T09:07:45.883Z,2.73
2018-01-20T09:10:13.386Z,2.30
2018-01-20T09:12:41.308Z,2.63
2018-01-20T09:15:09.048Z,2.20
2018-01-20T09:17:36.553Z,2.60
2018-01-20T09:20:04.807Z,2.20
2018-01-20T09:22:33.095Z,3.50
2018-01-20T09:25:00.577Z,3.00
2018-01-20T09:27:28.066Z,2.50
2018-01-20T09:29:55.580Z,4.10
2018-01-20T09:32:23.063Z,3.40
2018-01-20T09:34:51.444Z,2.73
2018-01-20T09:37:18.953Z,2.17
2018-01-20T09:39:46.443Z,3.20
2018-01-20T09:42:14.699Z,2.30
2018-01-20T09:44:42.971Z,1.90
2018-01-20T09:47:10.481Z,1.70
2018-01-20T09:49:37.983Z,2.30
2018-01-20T09:52:05.499Z,2.03
2018-01-20T09:54:33.757Z,2.57
2018-01-20T09:57:01.243Z,1.97
2018-01-20T09:59:28.763Z,2.30
2018-01-20T10:01:58.018Z,1.80
2018-01-20T10:04:25.499Z,2.30
2018-01-20T10:06:52.999Z,1.90
2018-01-20T10:09:20.487Z,2.10
2018-01-20T10:11:48.015Z,1.70
2018-01-20T10:14:15.531Z,2.53
2018-01-20T10:16:43.010Z,3.30
2018-01-20T10:19:10.571Z,2.87
2018-01-20T10:21:38.843Z,1.77
2018-01-20T10:24:06.342Z,2.03
2018-01-20T10:26:34.610Z,1.93
2018-01-20T10:29:02.126Z,2.80
2018-01-20T10:31:30.372Z,2.97
2018-01-20T10:33:57.860Z,2.50
2018-01-20T10:36:25.375Z,6.70
2018-01-20T10:38:52.860Z,8.27
2018-01-20T10:41:20.337Z,5.67
2018-01-20T10:43:47.861Z,2.80
2018-01-20T10:46:15.347Z,2.87
2018-01-20T10:48:42.833Z,3.67
2018-01-20T10:51:10.339Z,3.57
2018-01-20T10:53:37.822Z,3.67
2018-01-20T10:56:05.302Z,3.90
2018-01-20T10:58:32.824Z,2.30
2018-01-20T11:01:00.300Z,2.53
2018-01-20T11:03:28.550Z,3.20
2018-01-20T11:05:56.070Z,5.07
2018-01-20T11:08:23.551Z,2.07
2018-01-20T11:10:51.032Z,1.90
2018-01-20T11:13:18.543Z,2.53
2018-01-20T11:15:46.799Z,2.50
2018-01-20T11:18:14.306Z,2.10
2018-01-20T11:20:41.812Z,2.37
2018-01-20T11:23:10.054Z,2.50
2018-01-20T11:25:37.562Z,2.47
2018-01-20T11:28:05.108Z,2.93
2018-01-20T11:30:32.592Z,2.33
2018-01-20T11:33:00.079Z,1.90
2018-01-20T11:35:27.587Z,1.73
2018-01-20T11:37:55.079Z,1.80
2018-01-20T11:40:22.583Z,1.80
2018-01-20T11:42:50.874Z,2.77
2018-01-20T11:45:18.358Z,2.07
2018-01-20T11:47:46.608Z,2.50
2018-01-20T11:50:14.107Z,1.67
2018-01-20T11:52:42.351Z,1.60
2018-01-20T11:55:10.603Z,1.60
2018-01-20T11:57:38.113Z,2.40
2018-01-20T12:00:05.617Z,1.73
2018-01-20T12:02:33.111Z,1.80
2018-01-20T12:05:00.611Z,2.03
2018-01-20T12:07:28.102Z,2.03
2018-01-20T12:09:55.595Z,2.00
2018-01-20T12:12:23.124Z,1.83
2018-01-20T12:14:51.386Z,1.47
2018-01-20T12:17:18.878Z,1.60
2018-01-20T12:19:46.419Z,4.23
2018-01-20T12:22:13.904Z,1.97
2018-01-20T12:24:41.386Z,1.97
2018-01-20T12:27:08.895Z,1.90
2018-01-20T12:29:36.401Z,2.57
2018-01-20T12:32:03.879Z,1.80
2018-01-20T12:34:31.382Z,2.03
2018-01-20T12:36:59.641Z,3.03
2018-01-20T12:39:27.898Z,2.37
2018-01-20T12:41:55.407Z,2.27
2018-01-20T12:44:22.902Z,1.93
2018-01-20T12:46:50.398Z,2.10
2018-01-20T12:49:17.914Z,2.67
2018-01-20T12:51:46.172Z,9.60
2018-01-20T12:54:13.697Z,3.50
2018-01-20T12:56:41.979Z,2.13
2018-01-20T12:59:10.254Z,3.30
2018-01-20T13:01:37.735Z,1.70
2018-01-20T13:04:05.260Z,2.50
2018-01-20T13:06:32.750Z,1.90
2018-01-20T13:09:00.238Z,1.80
2018-01-20T13:11:27.794Z,3.03
2018-01-20T13:13:55.287Z,3.50
2018-01-20T13:16:23.539Z,3.80
2018-01-20T13:18:51.038Z,1.67
2018-01-20T13:21:18.524Z,2.10
2018-01-20T13:23:46.016Z,2.40
2018-01-20T13:26:13.516Z,3.20
2018-01-20T13:28:41.787Z,3.30
2018-01-20T13:31:09.275Z,2.30
2018-01-20T13:33:36.811Z,2.17
2018-01-20T13:36:04.282Z,2.50
2018-01-20T13:38:31.772Z,2.00
2018-01-20T13:40:59.283Z,2.00
2018-01-20T13:43:26.790Z,1.93
2018-01-20T13:45:54.371Z,2.23
2018-01-20T13:48:21.892Z,2.37
2018-01-20T13:50:49.372Z,2.47
2018-01-20T13:53:16.855Z,2.27
2018-01-20T13:55:45.180Z,2.63
2018-01-20T13:58:12.667Z,2.17
2018-01-20T14:00:40.438Z,2.03
2018-01-20T14:03:07.939Z,2.00
2018-01-20T14:05:42.540Z,11.27
2018-01-20T14:08:10.827Z,3.57
2018-01-20T14:10:38.304Z,2.80
2018-01-20T14:13:05.793Z,3.77
2018-01-20T14:15:34.063Z,2.13
2018-01-20T14:18:01.539Z,2.33
2018-01-20T14:20:29.031Z,2.77
2018-01-20T14:22:56.547Z,3.17
2018-01-20T14:25:24.791Z,3.63
2018-01-20T14:27:52.278Z,3.73
2018-01-20T14:30:19.807Z,3.57
2018-01-20T14:32:48.096Z,3.80
2018-01-20T14:35:15.583Z,3.10
2018-01-20T14:37:43.883Z,4.00
2018-01-20T14:40:11.366Z,3.83
2018-01-20T14:42:38.869Z,3.70
2018-01-20T14:45:07.155Z,6.30
2018-01-20T14:47:35.415Z,4.13
2018-01-20T14:50:02.895Z,3.00
2018-01-20T14:52:30.402Z,4.00
2018-01-20T14:54:57.891Z,3.47
2018-01-20T14:57:25.374Z,3.67
2018-01-20T14:59:52.939Z,3.93
2018-01-20T15:02:20.423Z,4.73
2018-01-20T15:04:47.911Z,8.20
2018-01-20T15:07:16.028Z,4.93
2018-01-20T15:09:44.409Z,6.23
2018-01-20T15:12:12.696Z,5.87
2018-01-20T15:14:40.226Z,4.87
2018-01-20T15:17:08.463Z,4.73
2018-01-20T15:19:35.948Z,5.03
2018-01-20T15:22:03.455Z,4.70
2018-01-20T15:24:30.943Z,4.37
2018-01-20T15:26:59.292Z,4.40
2018-01-20T15:29:26.790Z,3.90
2018-01-20T15:31:54.278Z,4.40
2018-01-20T15:34:21.770Z,5.10
2018-01-20T15:36:49.274Z,4.93
2018-01-20T15:39:16.784Z,4.40
2018-01-20T15:41:45.041Z,5.27
2018-01-20T15:44:12.574Z,4.40
2018-01-20T15:46:40.843Z,4.20
2018-01-20T15:49:08.322Z,4.67
2018-01-20T15:51:35.834Z,3.97
2018-01-20T15:54:03.335Z,5.17
2018-01-20T15:56:30.847Z,6.43
2018-01-20T15:58:58.363Z,12.30
2018-01-20T16:01:25.864Z,8.47
2018-01-20T16:03:54.114Z,3.47
2018-01-20T16:06:22.390Z,3.07
2018-01-20T16:08:49.871Z,3.47
2018-01-20T16:11:17.363Z,3.30
2018-01-20T16:13:44.888Z,4.67
2018-01-20T16:16:12.378Z,4.80
2018-01-20T16:18:39.941Z,4.63
2018-01-20T16:21:07.428Z,4.47
2018-01-20T16:23:34.919Z,4.03
2018-01-20T16:26:02.444Z,4.70
2018-01-20T16:28:30.739Z,5.03
2018-01-20T16:30:58.987Z,4.83
2018-01-20T16:33:26.486Z,5.53
2018-01-20T16:35:53.991Z,5.63
2018-01-20T16:38:22.258Z,8.57
2018-01-20T16:40:49.759Z,5.50
2018-01-20T16:43:17.275Z,7.13
2018-01-20T16:45:44.796Z,5.47
2018-01-20T16:48:12.299Z,5.37
2018-01-20T16:50:39.818Z,6.70
2018-01-20T16:53:07.318Z,5.50
2018-01-20T16:55:34.828Z,6.10
2018-01-20T16:58:02.339Z,6.23
2018-01-20T17:00:30.087Z,6.33
2018-01-20T17:02:57.586Z,6.10
2018-01-20T17:05:25.105Z,6.50
2018-01-20T17:07:53.375Z,5.80
2018-01-20T17:10:20.885Z,7.10
2018-01-20T17:12:49.164Z,5.97
2018-01-20T17:15:16.661Z,6.17
2018-01-20T17:17:44.967Z,7.10
2018-01-20T17:20:13.265Z,9.43
2018-01-20T17:22:41.526Z,7.10
2018-01-20T17:25:09.026Z,9.40
2018-01-20T17:27:36.551Z,10.50
2018-01-20T17:30:04.052Z,9.03
2018-01-20T17:32:31.559Z,17.37
2018-01-20T17:34:59.062Z,12.07
2018-01-20T17:37:26.548Z,7.67
2018-01-20T17:39:54.026Z,8.23
2018-01-20T17:42:21.531Z,7.03
2018-01-20T17:44:49.801Z,11.63
2018-01-20T17:47:17.306Z,7.20
2018-01-20T17:49:45.590Z,6.90
2018-01-20T17:52:13.066Z,7.40
2018-01-20T17:54:40.554Z,8.87
2018-01-20T17:57:08.055Z,7.87
2018-01-20T17:59:36.298Z,7.50
2018-01-20T18:02:03.783Z,8.00
2018-01-20T18:04:31.323Z,6.97
2018-01-20T18:06:59.568Z,7.23
2018-01-20T18:09:27.044Z,6.63
2018-01-20T18:11:54.571Z,6.33
2018-01-20T18:14:22.046Z,6.23
2018-01-20T18:16:49.531Z,7.53
2018-01-20T18:19:17.046Z,7.00
2018-01-20T18:21:44.538Z,7.60
2018-01-20T18:24:12.023Z,9.93
2018-01-20T18:26:39.540Z,11.07
2018-01-20T18:29:07.027Z,10.67
2018-01-20T18:31:34.570Z,11.47
2018-01-20T18:34:02.088Z,10.17
2018-01-20T18:36:30.335Z,9.23
2018-01-20T18:38:57.831Z,10.50
2018-01-20T18:41:25.373Z,11.40
2018-01-20T18:43:52.838Z,9.87
2018-01-20T18:46:21.135Z,10.67
2018-01-20T18:48:48.658Z,9.70
2018-01-20T18:51:16.924Z,11.00
2018-01-20T18:53:44.443Z,10.83
2018-01-20T18:56:12.728Z,11.70
2018-01-20T18:58:41.002Z,9.90
2018-01-20T19:01:08.560Z,10.07
2018-01-20T19:03:36.149Z,10.33
2018-01-20T19:06:03.643Z,8.73
2018-01-20T19:08:31.915Z,8.77
2018-01-20T19:10:59.439Z,9.53
2018-01-20T19:13:26.940Z,8.27
2018-01-20T19:15:54.423Z,8.30
2018-01-20T19:18:21.919Z,8.53
2018-01-20T19:20:50.171Z,8.60
2018-01-20T19:23:17.655Z,8.10
2018-01-20T19:25:45.168Z,8.97
2018-01-20T19:28:13.003Z,8.50
2018-01-20T19:30:40.488Z,8.70
2018-01-20T19:33:08.021Z,7.93
2018-01-20T19:35:35.531Z,7.17
2018-01-20T19:38:03.035Z,7.73
2018-01-20T19:40:30.546Z,7.83
2018-01-20T19:42:58.039Z,7.17
2018-01-20T19:45:25.524Z,7.10
2018-01-20T19:47:53.043Z,8.10
2018-01-20T19:50:20.564Z,7.40
2018-01-20T19:52:48.071Z,7.70
2018-01-20T19:55:15.598Z,8.47
2018-01-20T19:57:43.871Z,8.13
2018-01-20T20:00:11.372Z,8.43
2018-01-20T20:02:39.716Z,7.73
2018-01-20T20:05:07.213Z,8.90
2018-01-20T20:07:34.702Z,7.70
2018-01-20T20:10:02.223Z,8.00
2018-01-20T20:12:29.722Z,8.03
2018-01-20T20:14:57.987Z,10.10
2018-01-20T20:17:25.518Z,7.37
2018-01-20T20:19:53.011Z,7.90
2018-01-20T20:22:20.494Z,8.03
2018-01-20T20:24:47.999Z,7.97
2018-01-20T20:27:15.484Z,7.03
2018-01-20T20:29:43.738Z,7.60
2018-01-20T20:32:18.724Z,7.80
2018-01-20T20:34:46.283Z,7.83
2018-01-20T20:37:14.015Z,7.80
2018-01-20T20:39:41.515Z,7.83
2018-01-20T20:42:08.995Z,8.20
2018-01-20T20:44:36.477Z,8.07
2018-01-20T20:47:03.978Z,9.30
2018-01-20T20:49:31.460Z,8.77
2018-01-20T20:51:58.935Z,8.23
2018-01-20T20:54:26.439Z,8.33
2018-01-20T20:56:54.691Z,9.83
2018-01-20T20:59:22.167Z,9.80
2018-01-20T21:01:50.434Z,10.60
2018-01-20T21:04:17.919Z,9.57
2018-01-20T21:06:45.408Z,7.70
2018-01-20T21:09:12.906Z,7.83
2018-01-20T21:11:40.392Z,8.60
2018-01-20T21:14:07.886Z,7.57
2018-01-20T21:16:36.200Z,7.93
2018-01-20T21:19:03.686Z,7.30
2018-01-20T21:21:31.167Z,6.90
2018-01-20T21:23:58.662Z,6.80
2018-01-20T21:26:26.215Z,7.67
2018-01-20T21:28:53.690Z,6.80
2018-01-20T21:31:21.958Z,7.37
2018-01-20T21:33:49.440Z,7.43
2018-01-20T21:36:16.939Z,7.00
2018-01-20T21:38:44.446Z,6.07
2018-01-20T21:41:12.699Z,6.33
2018-01-20T21:43:40.183Z,6.30
2018-01-20T21:46:07.685Z,6.40
2018-01-20T21:48:35.171Z,5.80
2018-01-20T21:51:02.651Z,24.13
2018-01-20T21:53:30.166Z,9.47
2018-01-20T21:55:57.654Z,6.17
2018-01-20T21:58:25.130Z,7.37
2018-01-20T22:00:52.628Z,5.77
2018-01-20T22:03:20.114Z,6.47
2018-01-20T22:05:48.384Z,6.23
2018-01-20T22:08:15.915Z,6.20
2018-01-20T22:10:44.167Z,6.20
2018-01-20T22:13:11.660Z,7.13
2018-01-20T22:15:39.170Z,6.67
2018-01-20T22:18:07.413Z,6.40
2018-01-20T22:20:34.907Z,6.73
2018-01-20T22:23:02.420Z,6.60
2018-01-20T22:25:29.897Z,7.27
2018-01-20T22:27:57.381Z,6.73
2018-01-20T22:30:24.890Z,5.70
2018-01-20T22:32:53.135Z,6.27
2018-01-20T22:35:20.622Z,6.37
2018-01-20T22:37:48.140Z,5.33
2018-01-20T22:40:15.633Z,5.93
2018-01-20T22:42:43.896Z,6.90
2018-01-20T22:45:11.394Z,5.90
2018-01-20T22:47:39.659Z,5.77
2018-01-20T22:50:07.146Z,7.73
2018-01-20T22:52:34.674Z,8.37
2018-01-20T22:55:02.921Z,5.87
2018-01-20T22:57:30.407Z,7.07
2018-01-20T22:59:57.908Z,6.40
2018-01-20T23:02:25.392Z,5.50
2018-01-20T23:04:52.866Z,5.23
2018-01-20T23:07:20.367Z,6.10
2018-01-20T23:09:47.846Z,6.83
2018-01-20T23:12:15.330Z,5.77
2018-01-20T23:14:42.827Z,6.67
2018-01-20T23:17:11.077Z,5.63
2018-01-20T23:19:38.577Z,5.33
2018-01-20T23:22:06.078Z,5.97
2018-01-20T23:24:33.550Z,7.23
2018-01-20T23:27:01.031Z,6.43
2018-01-20T23:29:28.535Z,7.07
2018-01-20T23:31:56.010Z,6.60
2018-01-20T23:34:23.486Z,6.70
2018-01-20T23:36:50.996Z,6.70
2018-01-20T23:39:19.244Z,6.00
2018-01-20T23:41:46.734Z,6.50
2018-01-20T23:44:14.245Z,5.93
2018-01-20T23:46:42.491Z,5.83
2018-01-20T23:49:09.986Z,5.97
2018-01-20T23:51:37.484Z,6.60
2018-01-20T23:54:04.967Z,7.40
2018-01-20T23:56:32.462Z,6.57
2018-01-20T23:58:59.971Z,6.30
